TimeCST,TemperatureF,Dew PointF,Humidity,Sea Level PressureIn,VisibilityMPH,Wind Direction,Wind SpeedMPH,Gust SpeedMPH,PrecipitationIn,Events,Conditions,WindDirDegrees,DateUTC
12:08 AM,32.0,15.1,50,-9999,-9999.0,SE,16.1,-,N/A,,Unknown,130,2013-02-20 06:08:00
12:28 AM,32.0,15.1,50,-9999,-9999.0,SE,16.1,-,N/A,,Unknown,130,2013-02-20 06:28:00
12:48 AM,34.0,16.2,48,-9999,-9999.0,ESE,15.0,-,N/A,,Unknown,120,2013-02-20 06:48:00
1:08 AM,35.1,16.2,46,-9999,-9999.0,ESE,16.1,-,N/A,,Unknown,120,2013-02-20 07:08:00
1:28 AM,35.1,16.2,46,-9999,-9999.0,ESE,16.1,-,N/A,,Unknown,120,2013-02-20 07:28:00
1:48 AM,37.0,16.2,43,-9999,-9999.0,SE,18.4,-,N/A,,Unknown,130,2013-02-20 07:48:00
2:08 AM,39.0,18.1,43,-9999,-9999.0,SE,20.7,-,N/A,,Unknown,140,2013-02-20 08:08:00
2:28 AM,37.9,21.0,51,-9999,-9999.0,SSE,24.2,-,N/A,,Unknown,150,2013-02-20 08:28:00
2:48 AM,35.1,23.0,61,-9999,-9999.0,SE,23.0,-,N/A,,Unknown,140,2013-02-20 08:48:00
3:08 AM,33.1,23.0,66,-9999,-9999.0,SE,20.7,-,N/A,,Unknown,130,2013-02-20 09:08:00
3:28 AM,32.0,23.0,69,-9999,-9999.0,SE,18.4,-,N/A,,Unknown,130,2013-02-20 09:28:00
3:48 AM,32.0,24.1,73,-9999,-9999.0,SE,19.6,-,N/A,,Unknown,130,2013-02-20 09:48:00
4:08 AM,32.0,24.1,73,-9999,-9999.0,SE,21.9,-,N/A,,Unknown,130,2013-02-20 10:08:00
4:28 AM,32.0,24.1,73,-9999,-9999.0,SE,19.6,-,N/A,,Unknown,130,2013-02-20 10:28:00
4:48 AM,32.0,24.1,73,-9999,-9999.0,ESE,19.6,-,N/A,,Unknown,120,2013-02-20 10:48:00
5:08 AM,30.9,24.1,76,-9999,-9999.0,ESE,17.3,-,N/A,,Unknown,120,2013-02-20 11:08:00
5:28 AM,30.9,24.1,76,-9999,-9999.0,ESE,17.3,-,N/A,,Unknown,120,2013-02-20 11:28:00
5:48 AM,30.9,24.1,76,-9999,-9999.0,ESE,20.7,-,N/A,,Unknown,110,2013-02-20 11:48:00
6:08 AM,32.0,24.1,73,-9999,-9999.0,ESE,19.6,-,N/A,,Unknown,120,2013-02-20 12:08:00
6:28 AM,32.0,25.2,76,-9999,-9999.0,ESE,20.7,-,N/A,,Unknown,120,2013-02-20 12:28:00
6:48 AM,32.0,26.1,79,-9999,-9999.0,ESE,17.3,-,N/A,,Unknown,120,2013-02-20 12:48:00
7:08 AM,33.1,27.1,79,-9999,-9999.0,SE,19.6,-,N/A,,Unknown,130,2013-02-20 13:08:00
7:28 AM,34.0,28.0,79,-9999,-9999.0,SE,19.6,-,N/A,,Unknown,140,2013-02-20 13:28:00
7:48 AM,34.0,28.0,79,-9999,-9999.0,SE,19.6,-,N/A,,Unknown,140,2013-02-20 13:48:00
8:08 AM,35.1,28.0,76,-9999,-9999.0,SE,21.9,-,N/A,,Unknown,140,2013-02-20 14:08:00
8:28 AM,36.0,29.1,76,-9999,-9999.0,SE,23.0,-,N/A,,Unknown,140,2013-02-20 14:28:00
8:48 AM,36.0,29.1,76,-9999,-9999.0,SE,23.0,-,N/A,,Unknown,140,2013-02-20 14:48:00
9:08 AM,37.0,30.0,76,-9999,-9999.0,SE,23.0,-,N/A,,Unknown,140,2013-02-20 15:08:00
9:28 AM,37.0,30.0,76,-9999,-9999.0,SE,26.5,-,N/A,,Unknown,140,2013-02-20 15:28:00
9:48 AM,37.0,29.1,73,-9999,-9999.0,SSE,23.0,-,N/A,,Unknown,150,2013-02-20 15:48:00
10:08 AM,37.9,31.1,76,-9999,-9999.0,SSE,23.0,-,N/A,,Unknown,150,2013-02-20 16:08:00
10:28 AM,37.0,30.0,76,-9999,-9999.0,SSE,23.0,-,N/A,,Unknown,150,2013-02-20 16:28:00
10:48 AM,37.9,31.1,76,-9999,-9999.0,SSE,21.9,-,N/A,,Unknown,150,2013-02-20 16:48:00
11:08 AM,37.9,30.0,73,-9999,-9999.0,SSE,25.3,-,N/A,,Unknown,150,2013-02-20 17:08:00
11:28 AM,37.9,30.0,73,-9999,-9999.0,SSE,25.3,-,N/A,,Unknown,150,2013-02-20 17:28:00
11:48 AM,37.0,29.1,73,-9999,-9999.0,SSE,24.2,-,N/A,,Unknown,150,2013-02-20 17:48:00
12:08 PM,37.0,29.1,73,-9999,-9999.0,SSE,24.2,-,N/A,,Unknown,150,2013-02-20 18:08:00
12:28 PM,37.0,30.0,76,-9999,-9999.0,SSE,23.0,-,N/A,,Unknown,150,2013-02-20 18:28:00
12:48 PM,37.0,30.0,76,-9999,-9999.0,SSE,25.3,-,N/A,,Unknown,150,2013-02-20 18:48:00
1:08 PM,37.0,30.0,76,-9999,-9999.0,SE,23.0,-,N/A,,Unknown,140,2013-02-20 19:08:00
1:28 PM,37.0,29.1,73,-9999,-9999.0,SE,23.0,-,N/A,,Unknown,140,2013-02-20 19:28:00
1:48 PM,37.0,29.1,73,-9999,-9999.0,SSE,24.2,-,N/A,,Unknown,150,2013-02-20 19:48:00
2:08 PM,36.0,29.1,76,-9999,-9999.0,SSE,25.3,-,N/A,,Unknown,150,2013-02-20 20:08:00
2:28 PM,36.0,29.1,76,-9999,-9999.0,SSE,23.0,-,N/A,,Unknown,150,2013-02-20 20:28:00
2:48 PM,34.0,27.1,76,-9999,-9999.0,SE,24.2,-,N/A,,Unknown,140,2013-02-20 20:48:00
3:08 PM,34.0,28.0,79,-9999,-9999.0,SE,21.9,-,N/A,,Unknown,140,2013-02-20 21:08:00
3:28 PM,34.0,27.1,76,-9999,-9999.0,SE,21.9,-,N/A,,Unknown,140,2013-02-20 21:28:00
3:48 PM,35.1,28.0,76,-9999,-9999.0,SE,20.7,-,N/A,,Unknown,140,2013-02-20 21:48:00
4:08 PM,35.1,28.0,76,-9999,-9999.0,SE,23.0,-,N/A,,Unknown,140,2013-02-20 22:08:00
4:28 PM,35.1,27.1,73,-9999,-9999.0,SE,28.8,-,N/A,,Unknown,140,2013-02-20 22:28:00
4:48 PM,35.1,27.1,73,-9999,-9999.0,SE,25.3,-,N/A,,Unknown,140,2013-02-20 22:48:00
5:08 PM,34.0,28.0,79,-9999,-9999.0,SE,20.7,-,N/A,,Unknown,130,2013-02-20 23:08:00
5:28 PM,34.0,28.0,79,-9999,-9999.0,SE,23.0,-,N/A,,Unknown,130,2013-02-20 23:28:00
5:48 PM,34.0,26.1,73,-9999,-9999.0,SE,26.5,-,N/A,,Unknown,140,2013-02-20 23:48:00
6:08 PM,34.0,27.1,76,-9999,-9999.0,SE,21.9,-,N/A,,Unknown,130,2013-02-21 00:08:00
6:28 PM,34.0,26.1,73,-9999,-9999.0,SE,26.5,-,N/A,,Unknown,140,2013-02-21 00:28:00
6:48 PM,33.1,26.1,75,-9999,-9999.0,SE,27.6,-,N/A,,Unknown,140,2013-02-21 00:48:00
7:08 PM,33.1,26.1,75,-9999,-9999.0,SE,25.3,-,N/A,,Unknown,140,2013-02-21 01:08:00
7:28 PM,33.1,26.1,75,-9999,-9999.0,SE,21.9,-,N/A,,Unknown,140,2013-02-21 01:28:00
7:48 PM,33.1,26.1,75,-9999,-9999.0,SE,20.7,-,N/A,,Unknown,130,2013-02-21 01:48:00
8:08 PM,32.0,25.2,76,-9999,-9999.0,SE,23.0,-,N/A,,Unknown,140,2013-02-21 02:08:00
8:28 PM,32.0,27.1,82,-9999,-9999.0,SE,23.0,-,N/A,,Unknown,140,2013-02-21 02:28:00
8:48 PM,30.9,24.1,76,-9999,-9999.0,ESE,21.9,-,N/A,,Unknown,110,2013-02-21 02:48:00
9:08 PM,30.9,28.0,89,-9999,-9999.0,SE,20.7,-,N/A,,Unknown,130,2013-02-21 03:08:00
9:28 PM,30.9,27.1,86,-9999,-9999.0,SE,23.0,-,N/A,,Unknown,130,2013-02-21 03:28:00
9:48 PM,30.9,27.1,86,-9999,-9999.0,SE,23.0,-,N/A,,Unknown,130,2013-02-21 03:48:00
10:08 PM,30.9,27.1,86,-9999,-9999.0,SE,21.9,-,N/A,,Unknown,140,2013-02-21 04:08:00
10:28 PM,30.9,26.1,82,-9999,-9999.0,SE,26.5,-,N/A,,Unknown,130,2013-02-21 04:28:00
10:48 PM,30.9,25.2,79,-9999,-9999.0,SE,25.3,-,N/A,,Unknown,130,2013-02-21 04:48:00
11:08 PM,30.9,26.1,82,-9999,-9999.0,SE,24.2,-,N/A,,Unknown,130,2013-02-21 05:08:00
11:28 PM,30.9,25.2,79,-9999,-9999.0,SE,23.0,-,N/A,,Unknown,130,2013-02-21 05:28:00
11:48 PM,30.9,26.1,82,-9999,-9999.0,SE,21.9,-,N/A,,Unknown,140,2013-02-21 05:48:00